sensor_id;sensor_type;location;lat;lon;timestamp;P1;durP1;ratioP1;P2;durP2;ratioP2
11514;SDS011;5814;41.936;25.556;2022-08-19T00:00:06;11.32;;;10.20;;
11514;SDS011;5814;41.936;25.556;2022-08-19T00:02:32;10.70;;;9.75;;
11514;SDS011;5814;41.936;25.556;2022-08-19T00:04:59;10.85;;;9.80;;
11514;SDS011;5814;41.936;25.556;2022-08-19T00:07:27;10.98;;;10.25;;
11514;SDS011;5814;41.936;25.556;2022-08-19T00:09:54;10.80;;;9.98;;
11514;SDS011;5814;41.936;25.556;2022-08-19T00:12:21;11.25;;;10.35;;
11514;SDS011;5814;41.936;25.556;2022-08-19T00:14:48;11.07;;;10.05;;
11514;SDS011;5814;41.936;25.556;2022-08-19T00:17:15;11.40;;;10.30;;
11514;SDS011;5814;41.936;25.556;2022-08-19T00:19:43;11.23;;;10.32;;
11514;SDS011;5814;41.936;25.556;2022-08-19T00:22:10;10.85;;;10.15;;
11514;SDS011;5814;41.936;25.556;2022-08-19T00:24:37;10.98;;;10.07;;
11514;SDS011;5814;41.936;25.556;2022-08-19T00:27:04;10.73;;;9.95;;
11514;SDS011;5814;41.936;25.556;2022-08-19T00:29:31;10.48;;;9.77;;
11514;SDS011;5814;41.936;25.556;2022-08-19T00:31:59;10.77;;;10.07;;
11514;SDS011;5814;41.936;25.556;2022-08-19T00:34:26;10.65;;;9.55;;
11514;SDS011;5814;41.936;25.556;2022-08-19T00:36:54;11.20;;;10.05;;
11514;SDS011;5814;41.936;25.556;2022-08-19T00:39:21;11.45;;;10.40;;
11514;SDS011;5814;41.936;25.556;2022-08-19T00:41:48;11.23;;;10.52;;
11514;SDS011;5814;41.936;25.556;2022-08-19T00:44:19;10.98;;;10.07;;
11514;SDS011;5814;41.936;25.556;2022-08-19T00:46:47;11.35;;;10.45;;
11514;SDS011;5814;41.936;25.556;2022-08-19T00:49:16;11.02;;;10.35;;
11514;SDS011;5814;41.936;25.556;2022-08-19T00:51:42;11.00;;;10.02;;
11514;SDS011;5814;41.936;25.556;2022-08-19T00:54:09;11.35;;;10.55;;
11514;SDS011;5814;41.936;25.556;2022-08-19T00:56:36;11.35;;;10.50;;
11514;SDS011;5814;41.936;25.556;2022-08-19T00:59:03;10.65;;;9.80;;
11514;SDS011;5814;41.936;25.556;2022-08-19T01:01:30;10.98;;;9.93;;
11514;SDS011;5814;41.936;25.556;2022-08-19T01:03:57;10.98;;;10.07;;
11514;SDS011;5814;41.936;25.556;2022-08-19T01:06:26;10.40;;;9.60;;
11514;SDS011;5814;41.936;25.556;2022-08-19T01:08:52;10.90;;;10.00;;
11514;SDS011;5814;41.936;25.556;2022-08-19T01:11:19;11.68;;;10.88;;
11514;SDS011;5814;41.936;25.556;2022-08-19T01:13:46;10.85;;;10.15;;
11514;SDS011;5814;41.936;25.556;2022-08-19T01:16:13;10.48;;;9.77;;
11514;SDS011;5814;41.936;25.556;2022-08-19T01:18:41;10.80;;;10.02;;
11514;SDS011;5814;41.936;25.556;2022-08-19T01:21:11;11.18;;;10.32;;
11514;SDS011;5814;41.936;25.556;2022-08-19T01:23:36;11.80;;;10.60;;
11514;SDS011;5814;41.936;25.556;2022-08-19T01:26:11;11.07;;;10.18;;
11514;SDS011;5814;41.936;25.556;2022-08-19T01:28:36;11.27;;;10.38;;
11514;SDS011;5814;41.936;25.556;2022-08-19T01:31:03;11.35;;;10.52;;
11514;SDS011;5814;41.936;25.556;2022-08-19T01:33:31;12.75;;;10.88;;
11514;SDS011;5814;41.936;25.556;2022-08-19T01:36:10;11.48;;;10.45;;
11514;SDS011;5814;41.936;25.556;2022-08-19T01:38:39;11.38;;;10.32;;
11514;SDS011;5814;41.936;25.556;2022-08-19T01:41:05;11.15;;;10.45;;
11514;SDS011;5814;41.936;25.556;2022-08-19T01:43:32;11.57;;;10.63;;
11514;SDS011;5814;41.936;25.556;2022-08-19T01:45:59;11.88;;;10.85;;
11514;SDS011;5814;41.936;25.556;2022-08-19T01:48:27;12.10;;;10.55;;
11514;SDS011;5814;41.936;25.556;2022-08-19T01:50:54;11.18;;;10.35;;
11514;SDS011;5814;41.936;25.556;2022-08-19T01:53:21;11.48;;;10.57;;
11514;SDS011;5814;41.936;25.556;2022-08-19T01:55:48;11.43;;;10.32;;
11514;SDS011;5814;41.936;25.556;2022-08-19T01:58:17;12.05;;;11.02;;
11514;SDS011;5814;41.936;25.556;2022-08-19T02:00:43;11.30;;;10.30;;
11514;SDS011;5814;41.936;25.556;2022-08-19T02:03:10;11.55;;;10.75;;
11514;SDS011;5814;41.936;25.556;2022-08-19T02:05:37;10.93;;;10.20;;
11514;SDS011;5814;41.936;25.556;2022-08-19T02:08:04;10.93;;;10.02;;
11514;SDS011;5814;41.936;25.556;2022-08-19T02:10:31;12.50;;;10.27;;
11514;SDS011;5814;41.936;25.556;2022-08-19T02:12:58;11.05;;;10.25;;
11514;SDS011;5814;41.936;25.556;2022-08-19T02:15:26;10.32;;;9.63;;
11514;SDS011;5814;41.936;25.556;2022-08-19T02:17:53;11.95;;;10.85;;
11514;SDS011;5814;41.936;25.556;2022-08-19T02:20:20;11.40;;;10.50;;
11514;SDS011;5814;41.936;25.556;2022-08-19T02:22:47;10.75;;;10.05;;
11514;SDS011;5814;41.936;25.556;2022-08-19T02:25:14;11.40;;;10.52;;
11514;SDS011;5814;41.936;25.556;2022-08-19T02:27:42;11.77;;;10.68;;
11514;SDS011;5814;41.936;25.556;2022-08-19T02:30:11;11.82;;;10.88;;
11514;SDS011;5814;41.936;25.556;2022-08-19T02:32:37;15.75;;;11.90;;
11514;SDS011;5814;41.936;25.556;2022-08-19T02:35:05;10.88;;;10.07;;
11514;SDS011;5814;41.936;25.556;2022-08-19T02:37:33;11.52;;;10.80;;
11514;SDS011;5814;41.936;25.556;2022-08-19T02:40:06;12.05;;;10.98;;
11514;SDS011;5814;41.936;25.556;2022-08-19T02:42:34;11.60;;;10.65;;
11514;SDS011;5814;41.936;25.556;2022-08-19T02:45:01;11.57;;;10.57;;
11514;SDS011;5814;41.936;25.556;2022-08-19T02:47:29;11.60;;;10.80;;
11514;SDS011;5814;41.936;25.556;2022-08-19T02:49:56;11.75;;;10.85;;
11514;SDS011;5814;41.936;25.556;2022-08-19T02:52:24;11.95;;;10.95;;
11514;SDS011;5814;41.936;25.556;2022-08-19T02:54:51;11.40;;;10.60;;
11514;SDS011;5814;41.936;25.556;2022-08-19T02:57:18;11.75;;;10.95;;
11514;SDS011;5814;41.936;25.556;2022-08-19T02:59:45;12.10;;;11.07;;
11514;SDS011;5814;41.936;25.556;2022-08-19T03:02:12;12.18;;;11.27;;
11514;SDS011;5814;41.936;25.556;2022-08-19T03:04:39;12.15;;;11.25;;
11514;SDS011;5814;41.936;25.556;2022-08-19T03:07:07;11.12;;;10.32;;
11514;SDS011;5814;41.936;25.556;2022-08-19T03:09:36;17.58;;;11.43;;
11514;SDS011;5814;41.936;25.556;2022-08-19T03:12:02;13.15;;;12.00;;
11514;SDS011;5814;41.936;25.556;2022-08-19T03:14:30;12.37;;;11.43;;
11514;SDS011;5814;41.936;25.556;2022-08-19T03:16:56;13.02;;;11.77;;
11514;SDS011;5814;41.936;25.556;2022-08-19T03:19:24;13.07;;;11.82;;
11514;SDS011;5814;41.936;25.556;2022-08-19T03:21:51;12.85;;;11.27;;
11514;SDS011;5814;41.936;25.556;2022-08-19T03:24:18;13.30;;;12.25;;
11514;SDS011;5814;41.936;25.556;2022-08-19T03:26:47;13.50;;;12.43;;
11514;SDS011;5814;41.936;25.556;2022-08-19T03:29:15;13.55;;;12.60;;
11514;SDS011;5814;41.936;25.556;2022-08-19T03:31:42;13.13;;;12.20;;
11514;SDS011;5814;41.936;25.556;2022-08-19T03:34:10;13.50;;;12.52;;
11514;SDS011;5814;41.936;25.556;2022-08-19T03:36:37;13.13;;;12.23;;
11514;SDS011;5814;41.936;25.556;2022-08-19T03:39:04;17.58;;;12.00;;
11514;SDS011;5814;41.936;25.556;2022-08-19T03:41:32;13.90;;;12.50;;
11514;SDS011;5814;41.936;25.556;2022-08-19T03:43:59;13.48;;;12.27;;
11514;SDS011;5814;41.936;25.556;2022-08-19T03:46:27;12.70;;;11.70;;
11514;SDS011;5814;41.936;25.556;2022-08-19T03:48:54;12.65;;;11.55;;
11514;SDS011;5814;41.936;25.556;2022-08-19T03:51:22;13.85;;;11.88;;
11514;SDS011;5814;41.936;25.556;2022-08-19T03:53:48;13.68;;;12.25;;
11514;SDS011;5814;41.936;25.556;2022-08-19T03:56:15;12.45;;;11.45;;
11514;SDS011;5814;41.936;25.556;2022-08-19T03:58:44;13.98;;;12.70;;
11514;SDS011;5814;41.936;25.556;2022-08-19T04:01:12;13.38;;;12.23;;
11514;SDS011;5814;41.936;25.556;2022-08-19T04:03:38;14.80;;;13.38;;
11514;SDS011;5814;41.936;25.556;2022-08-19T04:06:10;16.02;;;14.50;;
11514;SDS011;5814;41.936;25.556;2022-08-19T04:08:40;14.57;;;13.35;;
11514;SDS011;5814;41.936;25.556;2022-08-19T04:11:08;12.85;;;11.88;;
11514;SDS011;5814;41.936;25.556;2022-08-19T04:13:34;13.23;;;12.25;;
11514;SDS011;5814;41.936;25.556;2022-08-19T04:16:02;13.35;;;12.25;;
11514;SDS011;5814;41.936;25.556;2022-08-19T04:18:29;13.05;;;11.80;;
11514;SDS011;5814;41.936;25.556;2022-08-19T04:20:56;12.20;;;11.02;;
11514;SDS011;5814;41.936;25.556;2022-08-19T04:23:23;12.88;;;11.63;;
11514;SDS011;5814;41.936;25.556;2022-08-19T04:25:50;11.38;;;10.32;;
11514;SDS011;5814;41.936;25.556;2022-08-19T04:28:18;11.52;;;10.60;;
11514;SDS011;5814;41.936;25.556;2022-08-19T04:30:47;11.98;;;10.88;;
11514;SDS011;5814;41.936;25.556;2022-08-19T04:33:12;11.68;;;10.68;;
11514;SDS011;5814;41.936;25.556;2022-08-19T04:35:40;13.70;;;11.23;;
11514;SDS011;5814;41.936;25.556;2022-08-19T04:38:07;12.63;;;11.35;;
11514;SDS011;5814;41.936;25.556;2022-08-19T04:40:34;13.30;;;11.07;;
11514;SDS011;5814;41.936;25.556;2022-08-19T04:43:06;12.70;;;11.43;;
11514;SDS011;5814;41.936;25.556;2022-08-19T04:45:35;15.05;;;11.12;;
11514;SDS011;5814;41.936;25.556;2022-08-19T04:48:01;14.77;;;11.75;;
11514;SDS011;5814;41.936;25.556;2022-08-19T04:50:28;12.37;;;11.23;;
11514;SDS011;5814;41.936;25.556;2022-08-19T04:52:55;13.00;;;11.63;;
11514;SDS011;5814;41.936;25.556;2022-08-19T04:55:23;11.95;;;10.88;;
11514;SDS011;5814;41.936;25.556;2022-08-19T04:57:50;12.43;;;11.27;;
11514;SDS011;5814;41.936;25.556;2022-08-19T05:00:17;12.82;;;11.60;;
11514;SDS011;5814;41.936;25.556;2022-08-19T05:02:44;13.15;;;12.00;;
11514;SDS011;5814;41.936;25.556;2022-08-19T05:05:12;13.30;;;12.02;;
11514;SDS011;5814;41.936;25.556;2022-08-19T05:07:40;13.27;;;11.57;;
11514;SDS011;5814;41.936;25.556;2022-08-19T05:10:07;16.27;;;11.80;;
11514;SDS011;5814;41.936;25.556;2022-08-19T05:12:35;12.35;;;11.05;;
11514;SDS011;5814;41.936;25.556;2022-08-19T05:15:03;11.85;;;10.85;;
11514;SDS011;5814;41.936;25.556;2022-08-19T05:17:31;12.68;;;11.43;;
11514;SDS011;5814;41.936;25.556;2022-08-19T05:19:58;12.45;;;11.30;;
11514;SDS011;5814;41.936;25.556;2022-08-19T05:22:31;12.82;;;11.70;;
11514;SDS011;5814;41.936;25.556;2022-08-19T05:24:58;12.37;;;11.25;;
11514;SDS011;5814;41.936;25.556;2022-08-19T05:27:25;12.00;;;11.00;;
11514;SDS011;5814;41.936;25.556;2022-08-19T05:29:53;12.85;;;11.43;;
11514;SDS011;5814;41.936;25.556;2022-08-19T05:32:20;11.48;;;10.60;;
11514;SDS011;5814;41.936;25.556;2022-08-19T05:34:47;11.98;;;10.95;;
11514;SDS011;5814;41.936;25.556;2022-08-19T05:37:14;11.82;;;10.93;;
11514;SDS011;5814;41.936;25.556;2022-08-19T05:39:41;11.77;;;10.80;;
11514;SDS011;5814;41.936;25.556;2022-08-19T05:42:09;12.32;;;11.23;;
11514;SDS011;5814;41.936;25.556;2022-08-19T05:44:37;12.00;;;10.90;;
11514;SDS011;5814;41.936;25.556;2022-08-19T05:47:05;11.98;;;11.07;;
11514;SDS011;5814;41.936;25.556;2022-08-19T05:49:32;13.68;;;10.95;;
11514;SDS011;5814;41.936;25.556;2022-08-19T05:52:01;12.40;;;11.12;;
11514;SDS011;5814;41.936;25.556;2022-08-19T05:54:26;11.32;;;10.52;;
11514;SDS011;5814;41.936;25.556;2022-08-19T05:56:53;11.95;;;10.88;;
11514;SDS011;5814;41.936;25.556;2022-08-19T05:59:21;15.10;;;11.63;;
11514;SDS011;5814;41.936;25.556;2022-08-19T06:01:48;12.45;;;11.07;;
11514;SDS011;5814;41.936;25.556;2022-08-19T06:04:15;15.00;;;11.18;;
11514;SDS011;5814;41.936;25.556;2022-08-19T06:06:42;14.98;;;11.57;;
11514;SDS011;5814;41.936;25.556;2022-08-19T06:09:09;12.55;;;11.45;;
11514;SDS011;5814;41.936;25.556;2022-08-19T06:11:39;11.50;;;10.50;;
11514;SDS011;5814;41.936;25.556;2022-08-19T06:14:05;13.85;;;11.90;;
11514;SDS011;5814;41.936;25.556;2022-08-19T06:16:31;11.90;;;10.70;;
11514;SDS011;5814;41.936;25.556;2022-08-19T06:18:59;11.43;;;10.40;;
11514;SDS011;5814;41.936;25.556;2022-08-19T06:21:26;12.27;;;11.10;;
11514;SDS011;5814;41.936;25.556;2022-08-19T06:23:53;11.80;;;10.65;;
11514;SDS011;5814;41.936;25.556;2022-08-19T06:26:20;11.52;;;10.50;;
11514;SDS011;5814;41.936;25.556;2022-08-19T06:28:47;11.77;;;10.68;;
11514;SDS011;5814;41.936;25.556;2022-08-19T06:31:16;11.57;;;10.63;;
11514;SDS011;5814;41.936;25.556;2022-08-19T06:33:43;11.23;;;10.35;;
11514;SDS011;5814;41.936;25.556;2022-08-19T06:36:17;11.25;;;10.45;;
11514;SDS011;5814;41.936;25.556;2022-08-19T06:38:44;11.12;;;10.18;;
11514;SDS011;5814;41.936;25.556;2022-08-19T06:41:11;10.10;;;9.40;;
11514;SDS011;5814;41.936;25.556;2022-08-19T06:43:38;13.70;;;10.10;;
11514;SDS011;5814;41.936;25.556;2022-08-19T06:46:09;11.05;;;10.13;;
11514;SDS011;5814;41.936;25.556;2022-08-19T06:48:33;11.38;;;10.50;;
11514;SDS011;5814;41.936;25.556;2022-08-19T06:51:00;10.90;;;9.85;;
11514;SDS011;5814;41.936;25.556;2022-08-19T06:53:27;11.90;;;10.90;;
11514;SDS011;5814;41.936;25.556;2022-08-19T06:55:54;11.23;;;10.32;;
11514;SDS011;5814;41.936;25.556;2022-08-19T06:58:21;11.15;;;10.32;;
11514;SDS011;5814;41.936;25.556;2022-08-19T07:00:49;11.43;;;10.25;;
11514;SDS011;5814;41.936;25.556;2022-08-19T07:03:16;11.02;;;9.98;;
11514;SDS011;5814;41.936;25.556;2022-08-19T07:05:43;10.20;;;9.30;;
11514;SDS011;5814;41.936;25.556;2022-08-19T07:08:10;11.55;;;10.40;;
11514;SDS011;5814;41.936;25.556;2022-08-19T07:10:38;10.68;;;9.80;;
11514;SDS011;5814;41.936;25.556;2022-08-19T07:13:05;11.12;;;10.00;;
11514;SDS011;5814;41.936;25.556;2022-08-19T07:15:32;11.50;;;10.38;;
11514;SDS011;5814;41.936;25.556;2022-08-19T07:17:59;10.48;;;9.68;;
11514;SDS011;5814;41.936;25.556;2022-08-19T07:20:26;11.40;;;10.40;;
11514;SDS011;5814;41.936;25.556;2022-08-19T07:22:53;11.10;;;10.30;;
11514;SDS011;5814;41.936;25.556;2022-08-19T07:25:21;12.82;;;10.30;;
11514;SDS011;5814;41.936;25.556;2022-08-19T07:27:48;11.27;;;10.48;;
11514;SDS011;5814;41.936;25.556;2022-08-19T07:30:15;11.38;;;10.57;;
11514;SDS011;5814;41.936;25.556;2022-08-19T07:32:42;11.23;;;10.23;;
11514;SDS011;5814;41.936;25.556;2022-08-19T07:35:09;11.55;;;10.73;;
11514;SDS011;5814;41.936;25.556;2022-08-19T07:37:37;13.00;;;11.80;;
11514;SDS011;5814;41.936;25.556;2022-08-19T07:40:05;11.52;;;10.40;;
11514;SDS011;5814;41.936;25.556;2022-08-19T07:42:33;10.85;;;9.98;;
11514;SDS011;5814;41.936;25.556;2022-08-19T07:45:00;11.27;;;9.82;;
11514;SDS011;5814;41.936;25.556;2022-08-19T07:47:27;10.40;;;9.52;;
11514;SDS011;5814;41.936;25.556;2022-08-19T07:49:54;10.32;;;9.55;;
11514;SDS011;5814;41.936;25.556;2022-08-19T07:52:22;10.98;;;9.93;;
11514;SDS011;5814;41.936;25.556;2022-08-19T07:54:49;13.60;;;10.27;;
11514;SDS011;5814;41.936;25.556;2022-08-19T07:57:16;11.02;;;10.10;;
11514;SDS011;5814;41.936;25.556;2022-08-19T07:59:43;11.50;;;10.40;;
11514;SDS011;5814;41.936;25.556;2022-08-19T08:02:11;11.10;;;10.15;;
11514;SDS011;5814;41.936;25.556;2022-08-19T08:04:38;11.02;;;10.13;;
11514;SDS011;5814;41.936;25.556;2022-08-19T08:07:11;11.63;;;10.50;;
11514;SDS011;5814;41.936;25.556;2022-08-19T08:09:44;12.23;;;10.43;;
11514;SDS011;5814;41.936;25.556;2022-08-19T08:12:13;14.57;;;13.23;;
11514;SDS011;5814;41.936;25.556;2022-08-19T08:14:41;10.80;;;9.90;;
11514;SDS011;5814;41.936;25.556;2022-08-19T08:17:06;11.75;;;10.05;;
11514;SDS011;5814;41.936;25.556;2022-08-19T08:19:33;10.35;;;9.73;;
11514;SDS011;5814;41.936;25.556;2022-08-19T08:22:01;11.07;;;9.95;;
11514;SDS011;5814;41.936;25.556;2022-08-19T08:24:28;10.57;;;9.77;;
11514;SDS011;5814;41.936;25.556;2022-08-19T08:26:55;10.05;;;9.35;;
11514;SDS011;5814;41.936;25.556;2022-08-19T08:29:22;11.38;;;10.23;;
11514;SDS011;5814;41.936;25.556;2022-08-19T08:31:49;11.23;;;9.98;;
11514;SDS011;5814;41.936;25.556;2022-08-19T08:34:17;10.77;;;9.90;;
11514;SDS011;5814;41.936;25.556;2022-08-19T08:36:45;10.35;;;9.65;;
11514;SDS011;5814;41.936;25.556;2022-08-19T08:39:12;10.73;;;9.82;;
11514;SDS011;5814;41.936;25.556;2022-08-19T08:41:42;20.10;;;18.23;;
11514;SDS011;5814;41.936;25.556;2022-08-19T08:44:14;13.13;;;12.20;;
11514;SDS011;5814;41.936;25.556;2022-08-19T08:46:46;10.63;;;9.57;;
11514;SDS011;5814;41.936;25.556;2022-08-19T08:52:06;11.32;;;9.57;;
11514;SDS011;5814;41.936;25.556;2022-08-19T08:54:36;11.65;;;10.75;;
11514;SDS011;5814;41.936;25.556;2022-08-19T08:57:00;9.77;;;9.10;;
11514;SDS011;5814;41.936;25.556;2022-08-19T08:59:29;10.45;;;9.75;;
11514;SDS011;5814;41.936;25.556;2022-08-19T09:01:55;11.02;;;9.27;;
11514;SDS011;5814;41.936;25.556;2022-08-19T09:04:22;11.63;;;10.50;;
11514;SDS011;5814;41.936;25.556;2022-08-19T09:07:06;9.20;;;8.63;;
11514;SDS011;5814;41.936;25.556;2022-08-19T09:09:46;10.40;;;9.35;;
11514;SDS011;5814;41.936;25.556;2022-08-19T09:12:16;10.27;;;9.50;;
11514;SDS011;5814;41.936;25.556;2022-08-19T09:15:01;9.55;;;8.85;;
11514;SDS011;5814;41.936;25.556;2022-08-19T09:17:28;10.55;;;9.57;;
11514;SDS011;5814;41.936;25.556;2022-08-19T09:19:56;10.07;;;9.00;;
11514;SDS011;5814;41.936;25.556;2022-08-19T09:22:24;10.23;;;9.40;;
11514;SDS011;5814;41.936;25.556;2022-08-19T09:24:52;10.23;;;9.63;;
11514;SDS011;5814;41.936;25.556;2022-08-19T09:27:19;9.73;;;9.00;;
11514;SDS011;5814;41.936;25.556;2022-08-19T09:29:46;9.20;;;8.70;;
11514;SDS011;5814;41.936;25.556;2022-08-19T09:32:13;9.90;;;9.10;;
11514;SDS011;5814;41.936;25.556;2022-08-19T09:34:40;10.68;;;9.80;;
11514;SDS011;5814;41.936;25.556;2022-08-19T09:37:07;10.15;;;9.45;;
11514;SDS011;5814;41.936;25.556;2022-08-19T09:39:35;9.95;;;8.95;;
11514;SDS011;5814;41.936;25.556;2022-08-19T09:42:02;9.52;;;8.93;;
11514;SDS011;5814;41.936;25.556;2022-08-19T09:44:29;9.73;;;8.93;;
11514;SDS011;5814;41.936;25.556;2022-08-19T09:46:56;9.00;;;8.38;;
11514;SDS011;5814;41.936;25.556;2022-08-19T09:49:23;9.73;;;9.00;;
11514;SDS011;5814;41.936;25.556;2022-08-19T09:51:51;8.98;;;8.32;;
11514;SDS011;5814;41.936;25.556;2022-08-19T09:54:18;9.27;;;8.57;;
11514;SDS011;5814;41.936;25.556;2022-08-19T09:56:45;9.07;;;8.52;;
11514;SDS011;5814;41.936;25.556;2022-08-19T09:59:12;9.68;;;8.88;;
11514;SDS011;5814;41.936;25.556;2022-08-19T10:01:39;8.80;;;8.00;;
11514;SDS011;5814;41.936;25.556;2022-08-19T10:04:07;9.27;;;8.48;;
11514;SDS011;5814;41.936;25.556;2022-08-19T10:06:35;9.38;;;8.65;;
11514;SDS011;5814;41.936;25.556;2022-08-19T10:09:02;9.65;;;8.65;;
11514;SDS011;5814;41.936;25.556;2022-08-19T10:11:29;8.88;;;8.25;;
11514;SDS011;5814;41.936;25.556;2022-08-19T10:13:56;9.10;;;8.45;;
11514;SDS011;5814;41.936;25.556;2022-08-19T10:16:23;9.45;;;8.68;;
11514;SDS011;5814;41.936;25.556;2022-08-19T10:18:51;9.40;;;8.70;;
11514;SDS011;5814;41.936;25.556;2022-08-19T10:21:20;9.02;;;8.48;;
11514;SDS011;5814;41.936;25.556;2022-08-19T10:23:47;9.30;;;8.30;;
11514;SDS011;5814;41.936;25.556;2022-08-19T10:26:14;10.10;;;8.75;;
11514;SDS011;5814;41.936;25.556;2022-08-19T10:28:40;8.75;;;8.05;;
11514;SDS011;5814;41.936;25.556;2022-08-19T10:31:08;9.13;;;8.43;;
11514;SDS011;5814;41.936;25.556;2022-08-19T10:33:35;8.57;;;8.07;;
11514;SDS011;5814;41.936;25.556;2022-08-19T10:36:03;8.93;;;8.20;;
11514;SDS011;5814;41.936;25.556;2022-08-19T10:38:30;8.85;;;8.25;;
11514;SDS011;5814;41.936;25.556;2022-08-19T10:40:58;9.20;;;8.40;;
11514;SDS011;5814;41.936;25.556;2022-08-19T10:43:25;9.15;;;8.25;;
11514;SDS011;5814;41.936;25.556;2022-08-19T10:45:53;8.65;;;8.05;;
11514;SDS011;5814;41.936;25.556;2022-08-19T10:48:19;9.43;;;8.65;;
11514;SDS011;5814;41.936;25.556;2022-08-19T10:50:46;9.48;;;8.60;;
11514;SDS011;5814;41.936;25.556;2022-08-19T10:53:19;8.55;;;7.97;;
11514;SDS011;5814;41.936;25.556;2022-08-19T10:55:46;8.60;;;8.00;;
11514;SDS011;5814;41.936;25.556;2022-08-19T10:58:19;9.32;;;8.73;;
11514;SDS011;5814;41.936;25.556;2022-08-19T11:00:52;9.20;;;8.55;;
11514;SDS011;5814;41.936;25.556;2022-08-19T11:03:18;8.73;;;7.90;;
11514;SDS011;5814;41.936;25.556;2022-08-19T11:05:46;9.77;;;8.90;;
11514;SDS011;5814;41.936;25.556;2022-08-19T11:08:13;8.73;;;8.23;;
11514;SDS011;5814;41.936;25.556;2022-08-19T11:10:41;10.10;;;9.40;;
11514;SDS011;5814;41.936;25.556;2022-08-19T11:13:08;9.13;;;8.40;;
11514;SDS011;5814;41.936;25.556;2022-08-19T11:15:35;9.57;;;8.82;;
11514;SDS011;5814;41.936;25.556;2022-08-19T11:18:03;9.55;;;8.70;;
11514;SDS011;5814;41.936;25.556;2022-08-19T11:20:30;10.55;;;9.65;;
11514;SDS011;5814;41.936;25.556;2022-08-19T11:22:59;8.60;;;8.10;;
11514;SDS011;5814;41.936;25.556;2022-08-19T11:25:27;9.23;;;8.63;;
11514;SDS011;5814;41.936;25.556;2022-08-19T11:27:54;9.25;;;8.70;;
11514;SDS011;5814;41.936;25.556;2022-08-19T11:30:21;9.30;;;8.48;;
11514;SDS011;5814;41.936;25.556;2022-08-19T11:32:48;9.30;;;8.70;;
11514;SDS011;5814;41.936;25.556;2022-08-19T11:35:15;9.70;;;9.00;;
11514;SDS011;5814;41.936;25.556;2022-08-19T11:37:42;8.80;;;8.23;;
11514;SDS011;5814;41.936;25.556;2022-08-19T11:40:10;9.20;;;8.60;;
11514;SDS011;5814;41.936;25.556;2022-08-19T11:42:38;9.18;;;8.68;;
11514;SDS011;5814;41.936;25.556;2022-08-19T11:45:10;9.27;;;8.63;;
11514;SDS011;5814;41.936;25.556;2022-08-19T11:47:38;9.82;;;9.02;;
11514;SDS011;5814;41.936;25.556;2022-08-19T11:50:05;9.00;;;8.40;;
11514;SDS011;5814;41.936;25.556;2022-08-19T11:52:33;9.55;;;8.50;;
11514;SDS011;5814;41.936;25.556;2022-08-19T11:55:00;9.35;;;8.77;;
11514;SDS011;5814;41.936;25.556;2022-08-19T11:57:27;9.50;;;8.60;;
11514;SDS011;5814;41.936;25.556;2022-08-19T11:59:54;8.88;;;8.27;;
11514;SDS011;5814;41.936;25.556;2022-08-19T12:02:21;8.90;;;8.40;;
11514;SDS011;5814;41.936;25.556;2022-08-19T12:04:49;8.93;;;8.32;;
11514;SDS011;5814;41.936;25.556;2022-08-19T12:07:16;9.27;;;8.68;;
11514;SDS011;5814;41.936;25.556;2022-08-19T12:09:43;9.40;;;8.80;;
11514;SDS011;5814;41.936;25.556;2022-08-19T12:12:10;8.82;;;8.32;;
11514;SDS011;5814;41.936;25.556;2022-08-19T12:14:37;8.93;;;8.43;;
11514;SDS011;5814;41.936;25.556;2022-08-19T12:17:05;9.40;;;8.77;;
11514;SDS011;5814;41.936;25.556;2022-08-19T12:19:32;14.30;;;13.23;;
11514;SDS011;5814;41.936;25.556;2022-08-19T12:21:59;10.18;;;9.50;;
11514;SDS011;5814;41.936;25.556;2022-08-19T12:24:27;8.93;;;8.20;;
11514;SDS011;5814;41.936;25.556;2022-08-19T12:26:54;9.23;;;8.50;;
11514;SDS011;5814;41.936;25.556;2022-08-19T12:29:21;8.50;;;7.97;;
11514;SDS011;5814;41.936;25.556;2022-08-19T12:31:48;9.40;;;8.70;;
11514;SDS011;5814;41.936;25.556;2022-08-19T12:34:15;9.00;;;8.40;;
11514;SDS011;5814;41.936;25.556;2022-08-19T12:36:42;9.40;;;8.60;;
11514;SDS011;5814;41.936;25.556;2022-08-19T12:39:10;9.07;;;8.30;;
11514;SDS011;5814;41.936;25.556;2022-08-19T12:41:37;9.68;;;8.80;;
11514;SDS011;5814;41.936;25.556;2022-08-19T12:44:04;9.65;;;8.52;;
11514;SDS011;5814;41.936;25.556;2022-08-19T12:46:31;8.65;;;8.15;;
11514;SDS011;5814;41.936;25.556;2022-08-19T12:48:58;9.13;;;8.32;;
11514;SDS011;5814;41.936;25.556;2022-08-19T12:51:26;9.05;;;8.45;;
11514;SDS011;5814;41.936;25.556;2022-08-19T12:53:53;8.50;;;8.00;;
11514;SDS011;5814;41.936;25.556;2022-08-19T12:56:20;8.68;;;8.13;;
11514;SDS011;5814;41.936;25.556;2022-08-19T12:58:47;9.15;;;8.35;;
11514;SDS011;5814;41.936;25.556;2022-08-19T13:01:15;9.35;;;8.57;;
11514;SDS011;5814;41.936;25.556;2022-08-19T13:03:42;9.25;;;8.65;;
11514;SDS011;5814;41.936;25.556;2022-08-19T13:06:09;9.07;;;8.35;;
11514;SDS011;5814;41.936;25.556;2022-08-19T13:08:36;9.65;;;8.85;;
11514;SDS011;5814;41.936;25.556;2022-08-19T13:11:08;8.68;;;8.18;;
11514;SDS011;5814;41.936;25.556;2022-08-19T13:13:36;9.05;;;8.40;;
11514;SDS011;5814;41.936;25.556;2022-08-19T13:16:03;8.73;;;8.02;;
11514;SDS011;5814;41.936;25.556;2022-08-19T13:18:30;8.80;;;8.27;;
11514;SDS011;5814;41.936;25.556;2022-08-19T13:21:03;10.10;;;9.45;;
11514;SDS011;5814;41.936;25.556;2022-08-19T13:23:30;8.73;;;8.02;;
11514;SDS011;5814;41.936;25.556;2022-08-19T13:25:58;8.25;;;7.70;;
11514;SDS011;5814;41.936;25.556;2022-08-19T13:28:25;8.27;;;7.57;;
11514;SDS011;5814;41.936;25.556;2022-08-19T13:30:52;7.50;;;7.00;;
11514;SDS011;5814;41.936;25.556;2022-08-19T13:33:25;8.25;;;7.65;;
11514;SDS011;5814;41.936;25.556;2022-08-19T13:35:56;7.62;;;7.22;;
11514;SDS011;5814;41.936;25.556;2022-08-19T13:38:20;8.15;;;7.65;;
11514;SDS011;5814;41.936;25.556;2022-08-19T13:40:47;7.55;;;7.05;;
11514;SDS011;5814;41.936;25.556;2022-08-19T13:43:13;6.97;;;6.50;;
11514;SDS011;5814;41.936;25.556;2022-08-19T13:45:41;7.40;;;6.90;;
11514;SDS011;5814;41.936;25.556;2022-08-19T13:48:08;6.70;;;6.30;;
11514;SDS011;5814;41.936;25.556;2022-08-19T13:50:39;7.12;;;6.57;;
11514;SDS011;5814;41.936;25.556;2022-08-19T13:53:05;7.32;;;6.90;;
11514;SDS011;5814;41.936;25.556;2022-08-19T13:55:32;7.00;;;6.60;;
11514;SDS011;5814;41.936;25.556;2022-08-19T13:58:00;6.62;;;6.15;;
11514;SDS011;5814;41.936;25.556;2022-08-19T14:00:27;7.28;;;6.55;;
11514;SDS011;5814;41.936;25.556;2022-08-19T14:02:55;6.97;;;6.57;;
11514;SDS011;5814;41.936;25.556;2022-08-19T14:05:22;7.22;;;6.53;;
11514;SDS011;5814;41.936;25.556;2022-08-19T14:07:49;7.03;;;6.50;;
11514;SDS011;5814;41.936;25.556;2022-08-19T14:10:16;6.87;;;6.28;;
11514;SDS011;5814;41.936;25.556;2022-08-19T14:12:43;6.93;;;6.32;;
11514;SDS011;5814;41.936;25.556;2022-08-19T14:15:11;7.07;;;6.47;;
11514;SDS011;5814;41.936;25.556;2022-08-19T14:17:39;6.55;;;6.25;;
11514;SDS011;5814;41.936;25.556;2022-08-19T14:20:05;7.20;;;6.70;;
11514;SDS011;5814;41.936;25.556;2022-08-19T14:22:35;7.18;;;6.53;;
11514;SDS011;5814;41.936;25.556;2022-08-19T14:25:03;8.15;;;7.07;;
11514;SDS011;5814;41.936;25.556;2022-08-19T14:27:29;6.85;;;6.45;;
11514;SDS011;5814;41.936;25.556;2022-08-19T14:29:56;6.15;;;5.80;;
11514;SDS011;5814;41.936;25.556;2022-08-19T14:32:23;6.80;;;6.40;;
11514;SDS011;5814;41.936;25.556;2022-08-19T14:34:51;6.03;;;5.72;;
11514;SDS011;5814;41.936;25.556;2022-08-19T14:37:18;7.18;;;5.75;;